Time;durP1;ratioP1;P1;durP2;ratioP2;P2;SDS_P1;SDS_P2;PMS_P1;PMS_P2;Temp;Humidity;BMP_temperature;BMP_pressure;BME280_temperature;BME280_humidity;BME280_pressure;Samples;Min_cycle;Max_cycle;Signal;HPM_P1;HPM_P2
2021/12/15 00:02:01;;;;;;;58.42;24.90;;;9.60;99.90;;;;;;4982828;28;20041;-93
2021/12/15 00:04:28;;;;;;;49.15;22.88;;;9.60;99.90;;;;;;4961030;28;20068;-91
2021/12/15 00:06:53;;;;;;;55.75;23.58;;;9.90;99.90;;;;;;5013556;28;20054;-92
2021/12/15 00:09:19;;;;;;;43.22;22.67;;;9.60;99.90;;;;;;4987504;28;20113;-91
2021/12/15 00:11:46;;;;;;;54.80;24.30;;;10.20;99.90;;;;;;5011733;28;20038;-92
2021/12/15 00:14:20;;;;;;;57.63;24.70;;;9.60;99.90;;;;;;4991596;28;20038;-93
2021/12/15 00:16:48;;;;;;;44.05;23.15;;;9.80;99.90;;;;;;5014238;28;20037;-92
2021/12/15 00:19:14;;;;;;;50.97;22.98;;;9.60;99.90;;;;;;5005029;28;20103;-92
2021/12/15 00:21:40;;;;;;;55.65;23.38;;;9.60;99.90;;;;;;5000083;28;20029;-93
2021/12/15 00:24:08;;;;;;;46.05;22.58;;;9.60;99.90;;;;;;5009793;28;20099;-92
2021/12/15 00:26:34;;;;;;;45.47;22.60;;;9.60;99.90;;;;;;4986373;28;20108;-93
2021/12/15 00:29:02;;;;;;;50.13;22.92;;;9.60;99.90;;;;;;5002238;28;20034;-92
2021/12/15 00:31:30;;;;;;;48.45;23.02;;;9.60;99.90;;;;;;4997763;28;20049;-91
2021/12/15 00:33:56;;;;;;;47.80;21.30;;;9.60;99.90;;;;;;4997760;28;20037;-91
2021/12/15 00:36:22;;;;;;;43.75;22.08;;;9.60;99.90;;;;;;5010066;28;20532;-92
2021/12/15 00:38:47;;;;;;;48.78;22.85;;;10.00;99.90;;;;;;4974156;28;20053;-93
2021/12/15 00:41:13;;;;;;;46.95;21.38;;;9.60;99.90;;;;;;4980599;28;20034;-92
2021/12/15 00:43:39;;;;;;;44.65;22.45;;;10.00;99.90;;;;;;4997885;28;20064;-92
2021/12/15 00:46:06;;;;;;;45.28;20.40;;;10.40;99.90;;;;;;5011836;28;20055;-92
2021/12/15 00:48:32;;;;;;;44.70;21.98;;;9.60;99.90;;;;;;5015947;28;20041;-91
2021/12/15 00:50:58;;;;;;;42.47;21.98;;;9.60;99.90;;;;;;4996012;28;20052;-93
2021/12/15 00:53:23;;;;;;;49.63;22.83;;;9.60;99.90;;;;;;5014021;28;20112;-92
2021/12/15 00:55:49;;;;;;;49.67;21.48;;;10.20;99.90;;;;;;5015584;28;20095;-91
2021/12/15 00:58:15;;;;;;;47.30;23.15;;;9.60;99.90;;;;;;4994760;28;20095;-92
2021/12/15 01:00:51;;;;;;;48.70;21.88;;;9.60;99.90;;;;;;5011697;28;20060;-92
2021/12/15 01:03:17;;;;;;;45.85;21.65;;;10.20;99.90;;;;;;5013221;28;20037;-92
2021/12/15 01:05:49;;;;;;;48.63;21.50;;;10.20;99.90;;;;;;4970248;28;20050;-92
2021/12/15 01:08:23;;;;;;;42.65;21.65;;;9.60;99.90;;;;;;5019540;28;20049;-92
2021/12/15 01:22:00;;;;;;;44.78;20.85;;;10.70;99.90;;;;;;5011669;28;20064;-91
2021/12/15 01:24:26;;;;;;;42.00;22.23;;;9.70;99.90;;;;;;5009782;28;20040;-92
2021/12/15 01:26:52;;;;;;;47.80;21.90;;;10.50;99.90;;;;;;4998769;28;20037;-93
2021/12/15 01:29:18;;;;;;;41.40;21.33;;;9.70;99.90;;;;;;4985439;28;20033;-92
2021/12/15 01:31:44;;;;;;;42.50;22.38;;;9.70;99.90;;;;;;4989722;28;20097;-92
2021/12/15 01:34:10;;;;;;;41.55;22.00;;;9.80;99.90;;;;;;4984445;28;20038;-92
2021/12/15 01:36:35;;;;;;;45.95;22.08;;;10.90;99.90;;;;;;5012603;28;20104;-92
2021/12/15 01:39:04;;;;;;;49.88;22.05;;;9.70;99.90;;;;;;5001553;28;20507;-92
2021/12/15 01:41:30;;;;;;;42.90;22.15;;;10.00;99.90;;;;;;4998843;28;20048;-92
2021/12/15 01:46:55;;;;;;;39.95;20.52;;;10.20;99.90;;;;;;5028913;28;20060;-92
2021/12/15 01:49:33;;;;;;;44.08;21.77;;;9.70;99.90;;;;;;5019674;28;20037;-92
2021/12/15 01:52:05;;;;;;;41.28;20.92;;;9.70;99.90;;;;;;5010895;28;20033;-92
2021/12/15 01:54:33;;;;;;;44.40;21.88;;;9.70;99.90;;;;;;5014275;28;20509;-92
2021/12/15 01:56:59;;;;;;;47.08;21.38;;;9.70;99.90;;;;;;4980987;28;20041;-93
2021/12/15 01:59:27;;;;;;;48.33;21.60;;;9.70;99.90;;;;;;4994425;28;20387;-94
2021/12/15 02:01:52;;;;;;;47.67;22.58;;;9.70;99.90;;;;;;4998059;28;20142;-92
2021/12/15 02:04:19;;;;;;;44.22;21.20;;;11.10;99.90;;;;;;4997648;28;20042;-93
2021/12/15 02:06:47;;;;;;;44.28;22.05;;;9.90;99.90;;;;;;4977243;28;20093;-93
2021/12/15 02:09:22;;;;;;;45.75;22.48;;;9.70;99.90;;;;;;5008510;28;20185;-92
2021/12/15 02:11:48;;;;;;;40.78;21.50;;;10.30;99.90;;;;;;5020848;28;20034;-92
2021/12/15 02:14:14;;;;;;;47.88;22.48;;;;;;;;;;4998129;28;20033;-93
2021/12/15 02:16:40;;;;;;;45.08;21.92;;;9.70;99.90;;;;;;5009256;28;20049;-92
2021/12/15 02:19:06;;;;;;;45.88;21.27;;;9.80;99.90;;;;;;4998462;28;20045;-92
2021/12/15 02:21:32;;;;;;;44.47;21.80;;;9.70;99.90;;;;;;4996283;28;20451;-94
2021/12/15 02:23:59;;;;;;;47.03;22.20;;;10.90;99.90;;;;;;5003760;28;20049;-93
2021/12/15 02:26:36;;;;;;;42.03;22.20;;;9.80;99.90;;;;;;5024650;28;20042;-92
2021/12/15 02:29:04;;;;;;;42.50;21.30;;;10.30;99.90;;;;;;5010886;28;20148;-91
2021/12/15 02:31:41;;;;;;;43.35;22.23;;;9.70;99.90;;;;;;5033856;28;20064;-92
2021/12/15 02:39:28;;;;;;;50.65;23.50;;;9.70;99.90;;;;;;5019557;28;20049;-92
2021/12/15 02:41:54;;;;;;;44.28;23.65;;;10.70;99.90;;;;;;4995308;28;20033;-93
2021/12/15 02:44:22;;;;;;;43.75;21.00;;;10.30;99.90;;;;;;4994559;28;20044;-92
2021/12/15 02:46:50;;;;;;;48.10;23.02;;;9.80;99.90;;;;;;5026776;28;20076;-92
2021/12/15 02:49:20;;;;;;;41.75;21.75;;;10.90;99.90;;;;;;4997954;28;20121;-94
2021/12/15 02:51:50;;;;;;;43.65;23.63;;;9.90;99.90;;;;;;5015602;28;20106;-94
2021/12/15 02:54:17;;;;;;;45.65;22.65;;;9.80;99.90;;;;;;5005806;28;20168;-92
2021/12/15 02:56:45;;;;;;;45.60;23.75;;;10.10;99.90;;;;;;5015811;28;20083;-93
2021/12/15 02:59:14;;;;;;;45.65;22.83;;;9.80;99.90;;;;;;5004459;28;20137;-92
2021/12/15 03:04:40;;;;;;;51.35;22.58;;;9.80;99.90;;;;;;5020097;28;20057;-93
2021/12/15 03:15:45;;;;;;;44.28;23.98;;;9.80;99.90;;;;;;5032489;28;20041;-93
2021/12/15 03:18:14;;;;;;;43.28;22.20;;;9.80;99.90;;;;;;5016925;28;20508;-92
2021/12/15 03:20:54;;;;;;;46.33;23.60;;;10.40;99.90;;;;;;5017858;28;20038;-93
2021/12/15 03:23:47;;;;;;;45.22;23.75;;;9.80;99.90;;;;;;5017033;28;20041;-93
2021/12/15 03:26:37;;;;;;;43.75;22.85;;;9.80;99.90;;;;;;4998736;28;20050;-91
2021/12/15 03:34:45;;;;;;;44.47;24.63;;;9.80;99.90;;;;;;5004140;28;20037;-92
2021/12/15 03:37:23;;;;;;;45.97;24.73;;;9.80;99.90;;;;;;5017244;28;20037;-91
2021/12/15 03:39:55;;;;;;;45.38;23.98;;;9.70;99.90;;;;;;5015777;28;20091;-92
2021/12/15 03:42:27;;;;;;;48.80;23.83;;;9.80;99.90;;;;;;5031934;28;20041;-93
2021/12/15 03:44:53;;;;;;;42.80;23.33;;;10.20;99.90;;;;;;5014371;28;20041;-93
2021/12/15 03:47:28;;;;;;;47.13;24.20;;;9.80;99.90;;;;;;5011295;28;20486;-92
2021/12/15 03:49:56;;;;;;;42.53;23.23;;;9.80;99.90;;;;;;5006641;28;20041;-92
2021/12/15 03:52:22;;;;;;;45.80;23.33;;;9.80;99.90;;;;;;4998282;28;20041;-92
2021/12/15 03:54:49;;;;;;;46.95;24.40;;;9.80;99.90;;;;;;5016318;28;20033;-94
2021/12/15 03:57:15;;;;;;;43.63;24.88;;;9.80;99.90;;;;;;5024765;28;20068;-93
2021/12/15 03:59:43;;;;;;;40.88;22.98;;;9.80;99.90;;;;;;5015182;28;20038;-93
2021/12/15 04:02:11;;;;;;;46.58;23.98;;;9.80;99.90;;;;;;4999213;28;20042;-92
2021/12/15 04:04:38;;;;;;;46.58;23.58;;;9.80;99.90;;;;;;5014480;28;20037;-93
2021/12/15 04:07:06;;;;;;;45.83;23.70;;;9.80;99.90;;;;;;4997293;28;20050;-93
2021/12/15 04:09:31;;;;;;;43.75;23.38;;;9.80;99.90;;;;;;5000182;28;20033;-92
2021/12/15 04:11:59;;;;;;;45.95;23.98;;;9.80;99.90;;;;;;5000209;28;20048;-92
2021/12/15 04:14:29;;;;;;;43.47;23.77;;;10.60;99.90;;;;;;4999391;28;20482;-92
2021/12/15 04:17:01;;;;;;;42.65;24.35;;;10.00;99.90;;;;;;4976151;28;20076;-92
2021/12/15 04:19:28;;;;;;;47.08;22.75;;;9.70;99.90;;;;;;5014539;28;20045;-92
2021/12/15 04:21:54;;;;;;;47.75;24.25;;;10.40;99.90;;;;;;5000239;28;20102;-92
2021/12/15 04:24:21;;;;;;;42.55;23.13;;;10.50;99.90;;;;;;5015217;28;20076;-93
2021/12/15 04:26:48;;;;;;;45.00;23.77;;;9.80;99.90;;;;;;5000079;28;20041;-93
2021/12/15 04:29:15;;;;;;;48.15;24.30;;;9.80;99.90;;;;;;4990402;28;20037;-93
2021/12/15 04:31:46;;;;;;;47.17;24.67;;;9.80;99.90;;;;;;5010309;28;20064;-92
2021/12/15 04:34:12;;;;;;;49.28;24.38;;;9.80;99.90;;;;;;5014484;28;20090;-94
2021/12/15 04:36:41;;;;;;;48.33;24.60;;;10.00;99.90;;;;;;4990938;28;20076;-93
2021/12/15 04:39:12;;;;;;;46.13;24.50;;;9.80;99.90;;;;;;5004074;28;20494;-92
2021/12/15 04:41:38;;;;;;;42.17;23.95;;;9.80;99.90;;;;;;5001932;28;20041;-92
2021/12/15 04:44:10;;;;;;;49.35;24.70;;;9.80;99.90;;;;;;4993490;28;20506;-94
2021/12/15 04:46:38;;;;;;;46.20;24.42;;;10.70;99.90;;;;;;5015124;28;20041;-93
2021/12/15 04:49:07;;;;;;;46.00;24.30;;;9.80;99.90;;;;;;4999941;28;20037;-93
2021/12/15 04:51:33;;;;;;;43.47;23.05;;;9.80;99.90;;;;;;5008359;28;20053;-93
2021/12/15 04:53:59;;;;;;;47.65;24.13;;;9.80;99.90;;;;;;5000701;28;20044;-93
2021/12/15 04:56:26;;;;;;;45.97;23.88;;;9.80;99.90;;;;;;4991876;28;20037;-94
2021/12/15 04:58:53;;;;;;;47.63;24.08;;;9.80;99.90;;;;;;4999287;28;20053;-92
2021/12/15 05:01:20;;;;;;;40.15;22.92;;;9.80;99.90;;;;;;5023257;28;20125;-93
2021/12/15 05:03:46;;;;;;;51.38;25.35;;;10.10;99.90;;;;;;5014233;28;20490;-92
2021/12/15 05:06:12;;;;;;;45.67;24.02;;;9.70;99.90;;;;;;4998230;28;20148;-93
2021/12/15 05:08:40;;;;;;;47.45;23.80;;;10.70;99.90;;;;;;5013363;28;20053;-93
2021/12/15 05:11:08;;;;;;;45.05;24.42;;;9.80;99.90;;;;;;5014117;28;20036;-94
2021/12/15 05:13:36;;;;;;;50.30;23.33;;;9.70;99.90;;;;;;5009609;28;20038;-94
2021/12/15 05:16:03;;;;;;;44.58;22.88;;;10.70;99.90;;;;;;4999104;28;20061;-93
2021/12/15 05:18:29;;;;;;;46.67;23.10;;;11.20;99.90;;;;;;4992983;28;20037;-93
2021/12/15 05:20:55;;;;;;;43.38;23.60;;;9.80;99.90;;;;;;4998800;28;20132;-92
2021/12/15 05:23:27;;;;;;;47.33;23.92;;;9.70;99.90;;;;;;4996325;28;20068;-94
2021/12/15 05:25:53;;;;;;;43.42;23.75;;;9.70;99.90;;;;;;5000100;28;20043;-94
2021/12/15 05:28:19;;;;;;;45.75;24.25;;;9.80;99.90;;;;;;4999539;28;20405;-93
2021/12/15 05:30:45;;;;;;;49.25;25.08;;;9.80;99.90;;;;;;4994170;28;20208;-93
2021/12/15 05:33:10;;;;;;;42.67;23.42;;;9.80;99.90;;;;;;5013873;28;20038;-93
2021/12/15 05:35:37;;;;;;;46.28;24.45;;;11.00;99.90;;;;;;4998734;28;20044;-93
2021/12/15 05:38:05;;;;;;;47.33;24.60;;;9.70;99.90;;;;;;4998972;28;20097;-92
2021/12/15 05:40:30;;;;;;;41.35;22.65;;;9.70;99.90;;;;;;4998526;28;20080;-93
2021/12/15 05:42:57;;;;;;;45.88;23.98;;;10.50;99.90;;;;;;4990258;28;20042;-93
2021/12/15 05:45:25;;;;;;;47.45;24.65;;;10.40;99.90;;;;;;5011003;28;20490;-94
2021/12/15 05:47:51;;;;;;;45.03;24.58;;;9.70;99.90;;;;;;5009306;28;20042;-92
2021/12/15 05:50:18;;;;;;;51.58;25.77;;;9.70;99.90;;;;;;4982760;28;20137;-93
2021/12/15 05:52:44;;;;;;;48.72;24.67;;;9.70;99.90;;;;;;4998673;28;20044;-93
2021/12/15 05:55:13;;;;;;;43.15;22.80;;;9.80;99.90;;;;;;5006999;28;20029;-93
2021/12/15 05:57:39;;;;;;;47.05;25.00;;;10.90;99.90;;;;;;5033563;28;20105;-91
2021/12/15 06:00:08;;;;;;;44.03;24.00;;;10.70;99.90;;;;;;5004599;28;20073;-92
2021/12/15 06:02:34;;;;;;;47.50;24.30;;;9.70;99.90;;;;;;5020266;28;20049;-92
2021/12/15 06:05:00;;;;;;;50.25;23.83;;;9.70;99.90;;;;;;5007572;28;20037;-91
2021/12/15 06:07:26;;;;;;;50.30;24.45;;;9.70;99.90;;;;;;4972279;28;20129;-94
2021/12/15 06:09:52;;;;;;;48.30;23.38;;;10.30;99.90;;;;;;4972364;28;20068;-91
2021/12/15 06:12:17;;;;;;;46.35;24.83;;;9.70;99.90;;;;;;4987758;28;20069;-93
2021/12/15 06:14:43;;;;;;;46.42;24.23;;;9.70;99.90;;;;;;4985622;28;20049;-92
2021/12/15 06:17:11;;;;;;;49.63;25.10;;;9.80;99.90;;;;;;4992663;28;20084;-92
2021/12/15 06:19:37;;;;;;;45.05;22.75;;;9.70;99.90;;;;;;5005835;28;20037;-92
2021/12/15 06:22:04;;;;;;;46.47;24.33;;;9.70;99.90;;;;;;4994190;28;20527;-94
2021/12/15 06:24:30;;;;;;;46.55;23.42;;;10.80;99.90;;;;;;4994570;28;20041;-92
2021/12/15 06:27:05;;;;;;;46.90;23.02;;;9.80;99.90;;;;;;4998275;28;20096;-92
2021/12/15 06:29:33;;;;;;;51.20;24.45;;;9.80;99.90;;;;;;5001239;28;20281;-93
2021/12/15 06:31:59;;;;;;;53.55;24.08;;;9.80;99.90;;;;;;5004700;28;20058;-92
2021/12/15 06:34:25;;;;;;;47.72;23.08;;;9.70;99.90;;;;;;4991722;28;20045;-93
2021/12/15 06:36:53;;;;;;;44.20;24.45;;;9.80;99.90;;;;;;4989735;28;20065;-94
2021/12/15 06:39:19;;;;;;;46.58;23.88;;;9.70;99.90;;;;;;4981230;28;20077;-92
2021/12/15 06:41:44;;;;;;;49.63;24.92;;;9.80;99.90;;;;;;4991534;28;20457;-92
2021/12/15 06:44:13;;;;;;;46.75;24.20;;;10.40;99.90;;;;;;4976801;28;20069;-92
2021/12/15 07:00:42;;;;;;;48.55;24.77;;;9.80;99.90;;;;;;4988462;28;20046;-88
2021/12/15 07:03:08;;;;;;;43.53;23.02;;;9.80;99.90;;;;;;5030926;28;20034;-89
2021/12/15 07:05:34;;;;;;;47.13;23.17;;;9.70;99.90;;;;;;4984224;28;20306;-90
2021/12/15 07:08:03;;;;;;;42.72;22.85;;;9.80;99.90;;;;;;5015329;28;20056;-89
2021/12/15 07:10:31;;;;;;;43.05;22.42;;;9.80;99.90;;;;;;5000911;28;20049;-88
2021/12/15 07:12:58;;;;;;;43.38;22.85;;;9.80;99.90;;;;;;5016388;28;20037;-91
2021/12/15 07:15:25;;;;;;;44.58;23.80;;;9.80;99.90;;;;;;5013141;28;20049;-90
2021/12/15 07:17:53;;;;;;;44.15;23.13;;;9.70;99.90;;;;;;5009044;28;20042;-89
2021/12/15 07:23:10;;;;;;;44.17;23.77;;;9.70;99.90;;;;;;5031913;28;20076;-89
2021/12/15 07:25:37;;;;;;;40.22;22.45;;;9.70;99.90;;;;;;5015338;28;20029;-88
2021/12/15 07:28:03;;;;;;;43.92;21.88;;;9.70;99.90;;;;;;4995937;28;20037;-89
2021/12/15 07:30:29;;;;;;;42.60;22.38;;;9.80;99.90;;;;;;5014806;28;20540;-89
2021/12/15 07:32:55;;;;;;;44.65;21.65;;;9.80;99.90;;;;;;4998413;28;20550;-87
2021/12/15 07:35:22;;;;;;;37.78;20.90;;;9.80;99.90;;;;;;4985687;28;20030;-88
2021/12/15 07:37:49;;;;;;;37.25;21.05;;;9.80;99.90;;;;;;5007764;28;20038;-89
2021/12/15 07:40:20;;;;;;;42.35;22.08;;;9.80;99.90;;;;;;5016732;28;20512;-89
2021/12/15 07:43:03;;;;;;;38.75;21.15;;;9.80;99.90;;;;;;5011596;28;20390;-91
2021/12/15 07:45:28;;;;;;;35.53;20.13;;;9.70;99.90;;;;;;5016432;28;20117;-90
2021/12/15 07:47:58;;;;;;;39.00;21.25;;;9.70;99.90;;;;;;4998891;28;20505;-89
2021/12/15 07:50:25;;;;;;;40.65;22.23;;;9.70;99.90;;;;;;5014398;28;20049;-89
2021/12/15 07:52:51;;;;;;;42.10;21.83;;;9.70;99.90;;;;;;4996315;28;20080;-88
2021/12/15 07:55:18;;;;;;;38.00;20.23;;;9.70;99.90;;;;;;4998522;28;20389;-87
2021/12/15 07:57:45;;;;;;;39.08;21.35;;;10.30;99.90;;;;;;5013024;28;20045;-88
2021/12/15 08:00:12;;;;;;;44.72;21.25;;;9.70;99.90;;;;;;5029541;28;20045;-91
2021/12/15 08:02:38;;;;;;;36.50;19.90;;;9.70;99.90;;;;;;5015215;28;20037;-88
2021/12/15 08:05:04;;;;;;;37.50;20.20;;;9.80;99.90;;;;;;5014249;28;20040;-90
2021/12/15 08:07:30;;;;;;;35.80;19.92;;;9.80;99.90;;;;;;4998846;28;20041;-89
2021/12/15 08:09:56;;;;;;;34.90;19.60;;;9.80;99.90;;;;;;4998195;28;20159;-93
2021/12/15 08:12:22;;;;;;;37.60;20.23;;;9.80;99.90;;;;;;4960834;28;20050;-93
2021/12/15 08:14:48;;;;;;;38.85;20.30;;;9.80;99.90;;;;;;5011190;28;20037;-89
2021/12/15 08:17:15;;;;;;;36.85;19.80;;;10.50;99.90;;;;;;4981418;28;20042;-90
2021/12/15 08:19:41;;;;;;;35.80;19.15;;;9.80;99.90;;;;;;5012884;28;20049;-87
2021/12/15 08:22:07;;;;;;;34.90;17.85;;;9.80;99.90;;;;;;4997326;28;20144;-89
2021/12/15 08:24:33;;;;;;;35.00;18.38;;;10.60;99.90;;;;;;4985305;28;20589;-89
2021/12/15 08:26:59;;;;;;;33.28;17.70;;;9.90;99.90;;;;;;4983358;28;20387;-88
2021/12/15 08:29:25;;;;;;;34.50;16.98;;;9.90;99.90;;;;;;4978893;28;20045;-90
2021/12/15 08:31:51;;;;;;;30.10;15.75;;;;;;;;;;4974997;28;20058;-88
2021/12/15 08:34:17;;;;;;;29.35;15.55;;;9.80;99.90;;;;;;4994300;28;20025;-93
2021/12/15 08:36:46;;;;;;;38.53;15.35;;;9.80;99.90;;;;;;4981363;28;20540;-92
2021/12/15 08:39:12;;;;;;;25.35;14.00;;;9.90;99.90;;;;;;4980259;28;20096;-88
2021/12/15 08:41:38;;;;;;;26.90;14.10;;;10.80;99.90;;;;;;4981623;28;20045;-89
2021/12/15 08:44:06;;;;;;;32.30;14.30;;;10.10;99.90;;;;;;4964943;28;20589;-89
2021/12/15 08:46:39;;;;;;;27.77;14.98;;;9.90;99.90;;;;;;5006701;28;20163;-87
2021/12/15 08:49:07;;;;;;;28.90;13.65;;;9.90;99.90;;;;;;5004273;28;20422;-89
2021/12/15 08:51:34;;;;;;;29.02;13.85;;;9.90;99.90;;;;;;4992137;28;20180;-90
2021/12/15 08:54:03;;;;;;;35.50;15.52;;;10.00;99.90;;;;;;4998114;28;20037;-88
2021/12/15 08:56:30;;;;;;;26.95;14.85;;;9.90;99.90;;;;;;4997852;28;20044;-88
2021/12/15 08:58:56;;;;;;;29.58;14.85;;;9.90;99.90;;;;;;4996899;28;20037;-89
2021/12/15 09:01:22;;;;;;;32.33;15.10;;;11.00;99.90;;;;;;4981557;28;20041;-88
2021/12/15 09:03:48;;;;;;;28.77;15.82;;;9.90;99.90;;;;;;4974367;28;20545;-90
2021/12/15 09:06:15;;;;;;;30.50;15.18;;;10.50;99.90;;;;;;5020784;28;20049;-89
2021/12/15 09:08:42;;;;;;;33.72;15.93;;;9.90;99.90;;;;;;4997688;28;20046;-89
2021/12/15 09:11:13;;;;;;;31.50;15.18;;;9.90;99.90;;;;;;5013317;28;20045;-90
2021/12/15 09:13:39;;;;;;;31.38;14.38;;;9.90;99.90;;;;;;5000854;28;20041;-88
2021/12/15 09:16:11;;;;;;;31.63;14.50;;;9.90;99.90;;;;;;5007005;28;20072;-88
2021/12/15 09:18:40;;;;;;;25.98;13.02;;;9.90;99.90;;;;;;5012102;28;20044;-91
2021/12/15 09:21:08;;;;;;;31.60;13.40;;;9.90;99.90;;;;;;4998168;28;20034;-90
2021/12/15 09:23:34;;;;;;;27.80;13.60;;;9.90;99.90;;;;;;4994360;28;20481;-91
2021/12/15 09:26:00;;;;;;;28.85;14.10;;;9.90;99.90;;;;;;5015011;28;20042;-90
2021/12/15 09:28:26;;;;;;;25.75;13.10;;;11.10;99.90;;;;;;4997035;28;20057;-92
2021/12/15 09:30:54;;;;;;;27.13;13.88;;;9.90;99.90;;;;;;4985425;28;20083;-88
2021/12/15 09:33:28;;;;;;;31.35;14.13;;;9.90;99.90;;;;;;5011838;28;20033;-90
2021/12/15 09:35:54;;;;;;;25.60;13.43;;;9.90;99.90;;;;;;5005485;28;20513;-90
2021/12/15 09:38:21;;;;;;;29.38;14.32;;;9.90;99.90;;;;;;5013895;28;20112;-90
2021/12/15 09:40:49;;;;;;;25.30;13.18;;;9.90;99.90;;;;;;4997492;28;20049;-90
2021/12/15 09:43:15;;;;;;;28.48;13.45;;;10.00;99.90;;;;;;4993883;28;20450;-90
2021/12/15 09:45:50;;;;;;;26.90;13.60;;;10.00;99.90;;;;;;5013262;28;20037;-87
2021/12/15 10:02:06;;;;;;;22.00;10.50;;;10.60;99.90;;;;;;5026948;28;20037;-87
2021/12/15 10:17:26;;;;;;;17.10;9.43;;;10.30;99.90;;;;;;5006492;28;20038;-90
2021/12/15 10:18:15;;;;;;;18.92;9.50;;;10.40;99.90;;;;;;5009317;28;20612;-89
2021/12/15 10:20:41;;;;;;;18.48;9.63;;;10.40;99.90;;;;;;5028978;28;20041;-89
2021/12/15 10:23:13;;;;;;;20.38;10.07;;;10.40;99.90;;;;;;4996404;28;20048;-89
2021/12/15 10:25:49;;;;;;;18.48;9.88;;;10.40;99.90;;;;;;5005622;28;20045;-90
2021/12/15 10:28:24;;;;;;;21.55;10.48;;;10.40;99.90;;;;;;5005657;28;20065;-90
2021/12/15 10:31:11;;;;;;;19.52;10.45;;;10.40;99.90;;;;;;5026772;28;20099;-90
2021/12/15 10:33:43;;;;;;;23.13;10.82;;;10.40;99.90;;;;;;5018419;28;20053;-91
2021/12/15 10:36:22;;;;;;;20.67;9.65;;;10.40;99.90;;;;;;5002377;28;20072;-91
2021/12/15 10:38:57;;;;;;;20.58;9.88;;;10.30;99.90;;;;;;5028820;28;20072;-90
2021/12/15 10:41:45;;;;;;;20.13;10.93;;;10.30;99.90;;;;;;5012304;28;20048;-90
2021/12/15 10:44:21;;;;;;;18.77;9.32;;;10.30;99.90;;;;;;5014083;28;20099;-89
2021/12/15 10:46:52;;;;;;;18.52;9.68;;;10.60;99.90;;;;;;5006814;28;20048;-91
2021/12/15 10:49:19;;;;;;;20.42;10.10;;;10.30;99.90;;;;;;5001940;28;20380;-88
2021/12/15 10:51:55;;;;;;;19.23;9.88;;;10.30;99.90;;;;;;5026035;28;20037;-90
2021/12/15 10:54:28;;;;;;;20.23;10.35;;;10.30;99.90;;;;;;5012395;28;20179;-90
2021/12/15 10:56:58;;;;;;;22.27;9.80;;;10.30;99.90;;;;;;5010014;28;20263;-87
2021/12/15 10:59:28;;;;;;;23.85;10.57;;;10.30;99.90;;;;;;5011770;28;20124;-88
2021/12/15 11:01:57;;;;;;;22.27;9.75;;;11.10;99.90;;;;;;5012652;28;20044;-90
2021/12/15 11:04:29;;;;;;;17.77;10.00;;;10.30;99.90;;;;;;5011817;28;20118;-88
2021/12/15 11:07:03;;;;;;;18.75;9.55;;;10.30;99.90;;;;;;5018664;28;20069;-89
2021/12/15 11:09:33;;;;;;;17.63;9.75;;;10.30;99.90;;;;;;5028195;28;20041;-90
2021/12/15 11:12:10;;;;;;;19.92;9.73;;;10.40;99.90;;;;;;5033366;28;20038;-93
2021/12/15 11:14:40;;;;;;;23.33;10.35;;;10.40;99.90;;;;;;5016010;28;20037;-95
2021/12/15 11:17:15;;;;;;;19.80;9.98;;;10.50;99.90;;;;;;5016772;28;20111;-93
2021/12/15 11:19:56;;;;;;;21.02;9.93;;;10.40;99.90;;;;;;5021712;28;20493;-92
2021/12/15 11:22:53;;;;;;;19.00;9.85;;;10.40;99.90;;;;;;5015415;28;20038;-94
2021/12/15 11:25:19;;;;;;;19.08;9.85;;;10.40;99.90;;;;;;5008478;28;20401;-93
2021/12/15 11:27:51;;;;;;;19.88;8.80;;;10.40;99.90;;;;;;5033016;28;20053;-93
2021/12/15 11:30:26;;;;;;;18.02;9.40;;;10.40;99.90;;;;;;5024959;28;20163;-93
2021/12/15 11:32:54;;;;;;;18.52;9.35;;;10.50;99.90;;;;;;5015849;28;20040;-90
2021/12/15 11:35:27;;;;;;;18.73;9.02;;;10.50;99.90;;;;;;5009718;28;20514;-90
2021/12/15 11:38:01;;;;;;;18.10;8.73;;;10.50;99.90;;;;;;5031968;28;20462;-90
2021/12/15 11:40:35;;;;;;;17.27;9.00;;;11.20;99.90;;;;;;5010758;28;20037;-91
2021/12/15 11:43:01;;;;;;;17.95;8.75;;;10.50;99.90;;;;;;5016872;28;20045;-93
2021/12/15 11:45:28;;;;;;;18.35;8.52;;;10.50;99.90;;;;;;5019913;28;20084;-91
2021/12/15 11:48:19;;;;;;;16.17;8.52;;;10.50;99.90;;;;;;4998621;28;20042;-91
2021/12/15 11:50:48;;;;;;;17.10;8.10;;;10.50;99.90;;;;;;5008589;28;20046;-90
2021/12/15 11:53:32;;;;;;;16.08;8.38;;;11.40;99.90;;;;;;5013547;28;20033;-93
2021/12/15 11:56:10;;;;;;;18.75;8.75;;;10.60;99.90;;;;;;5013923;28;20248;-90
2021/12/15 11:58:36;;;;;;;20.13;8.85;;;10.60;99.90;;;;;;5014589;28;20037;-89
2021/12/15 12:01:02;;;;;;;16.63;8.30;;;10.60;99.90;;;;;;5011264;28;20064;-87
2021/12/15 12:03:28;;;;;;;19.55;8.55;;;10.70;99.90;;;;;;4990498;28;20045;-88
2021/12/15 12:05:54;;;;;;;16.25;8.30;;;10.70;99.90;;;;;;5012680;28;20051;-89
2021/12/15 12:08:20;;;;;;;15.40;7.60;;;10.60;99.90;;;;;;4996282;28;20096;-89
2021/12/15 12:10:51;;;;;;;18.38;7.57;;;10.60;99.90;;;;;;5014589;28;20565;-89
2021/12/15 12:13:24;;;;;;;18.08;7.30;;;10.60;99.90;;;;;;5029081;28;20061;-89
2021/12/15 12:15:53;;;;;;;16.92;7.22;;;10.70;99.90;;;;;;5015199;28;20034;-88
2021/12/15 12:18:22;;;;;;;16.80;6.55;;;10.60;99.90;;;;;;5017021;28;20041;-90
2021/12/15 12:20:58;;;;;;;15.25;6.72;;;11.40;99.90;;;;;;5012514;28;20073;-89
2021/12/15 12:23:27;;;;;;;19.77;6.75;;;10.70;99.90;;;;;;5012364;28;20045;-89
2021/12/15 12:25:57;;;;;;;15.25;5.53;;;10.70;99.90;;;;;;5030797;28;20059;-88
2021/12/15 12:28:26;;;;;;;16.17;6.15;;;10.70;99.90;;;;;;5012839;28;20110;-90
2021/12/15 12:31:11;;;;;;;12.65;6.07;;;10.80;99.90;;;;;;5012127;28;20115;-89
2021/12/15 12:33:37;;;;;;;13.55;5.35;;;10.70;99.90;;;;;;5008197;28;20034;-88
2021/12/15 12:36:09;;;;;;;12.57;4.20;;;10.70;99.90;;;;;;4997068;28;20037;-88
2021/12/15 12:38:38;;;;;;;10.38;3.72;;;10.70;99.90;;;;;;5027708;28;20121;-88
2021/12/15 12:41:18;;;;;;;10.18;3.40;;;10.60;99.90;;;;;;5015961;28;20041;-92
2021/12/15 12:43:50;;;;;;;12.43;3.50;;;10.70;99.90;;;;;;5042460;28;20069;-90
2021/12/15 12:46:26;;;;;;;13.43;3.73;;;10.60;99.90;;;;;;5019147;28;20038;-91
2021/12/15 12:49:27;;;;;;;10.43;3.85;;;10.60;99.90;;;;;;5014990;28;20043;-90
2021/12/15 13:00:28;;;;;;;12.75;3.47;;;10.60;99.90;;;;;;5029498;28;20053;-89
2021/12/15 13:03:28;;;;;;;11.77;3.50;;;10.60;99.90;;;;;;5013401;28;20116;-90
2021/12/15 13:06:07;;;;;;;12.38;3.60;;;10.70;99.90;;;;;;5027940;28;20502;-92
2021/12/15 13:08:41;;;;;;;11.60;3.65;;;10.60;99.90;;;;;;5026537;28;20045;-90
2021/12/15 13:11:33;;;;;;;10.10;3.70;;;10.50;99.90;;;;;;5009962;28;20521;-92
2021/12/15 13:14:31;;;;;;;12.13;3.40;;;11.20;99.90;;;;;;5011887;28;20111;-88
2021/12/15 13:17:07;;;;;;;12.00;3.40;;;10.40;99.90;;;;;;5004454;28;20060;-89
2021/12/15 13:19:40;;;;;;;11.50;3.38;;;10.40;99.90;;;;;;5012759;28;20049;-90
2021/12/15 13:30:47;;;;;;;11.48;3.25;;;10.50;99.90;;;;;;5028249;28;20045;-89
2021/12/15 13:33:40;;;;;;;10.98;2.90;;;10.50;99.90;;;;;;5017674;28;20037;-90
2021/12/15 13:36:19;;;;;;;8.60;2.63;;;10.50;99.90;;;;;;5010041;28;20614;-87
2021/12/15 13:39:05;;;;;;;10.80;2.70;;;10.50;99.90;;;;;;5011825;28;20069;-88
2021/12/15 13:42:11;;;;;;;8.85;2.50;;;10.50;99.90;;;;;;5012064;28;20183;-92
2021/12/15 13:44:45;;;;;;;9.85;2.50;;;10.60;99.90;;;;;;5027237;28;20068;-87
2021/12/15 13:47:13;;;;;;;9.23;2.50;;;10.60;99.90;;;;;;5023053;28;20048;-88
2021/12/15 13:49:57;;;;;;;7.38;2.08;;;10.70;99.90;;;;;;5011633;28;20112;-91
2021/12/15 13:52:39;;;;;;;7.25;2.10;;;10.80;99.90;;;;;;5009140;28;20033;-87
2021/12/15 13:55:34;;;;;;;11.13;2.55;;;10.80;99.90;;;;;;5026898;28;20308;-90
2021/12/15 13:58:09;;;;;;;9.50;2.55;;;10.60;99.90;;;;;;4997398;28;20061;-88
2021/12/15 14:01:04;;;;;;;8.07;2.22;;;10.50;99.90;;;;;;5025851;28;20406;-89
2021/12/15 14:03:45;;;;;;;8.10;2.17;;;10.30;99.90;;;;;;4997507;28;20449;-88
2021/12/15 14:06:18;;;;;;;13.00;2.30;;;10.30;99.90;;;;;;5027041;28;20041;-90
2021/12/15 14:08:50;;;;;;;6.55;1.98;;;10.50;99.90;;;;;;5014735;28;20046;-91
2021/12/15 14:11:23;;;;;;;7.93;2.30;;;10.80;99.90;;;;;;5009860;28;20064;-88
2021/12/15 14:13:54;;;;;;;;;;;11.10;99.90;;;;;;5011629;28;20064;-90
2021/12/15 14:16:44;;;;;;;8.93;2.20;;;11.50;99.90;;;;;;5028729;28;20062;-91
2021/12/15 14:19:14;;;;;;;8.18;2.10;;;11.70;99.90;;;;;;5018858;28;20128;-89
2021/12/15 14:21:40;;;;;;;7.63;2.10;;;11.80;99.90;;;;;;5012090;28;20206;-89
2021/12/15 14:24:08;;;;;;;9.30;2.58;;;11.60;99.90;;;;;;5010058;28;20037;-88
2021/12/15 14:26:36;;;;;;;8.52;2.08;;;11.50;99.90;;;;;;4987125;28;20094;-88